createdAt,value
2019-06-20T00:01:50.324Z,19.11
2019-06-20T00:04:23.698Z,19.11
2019-06-20T00:06:55.962Z,19.09
2019-06-20T00:09:26.519Z,19.07
2019-06-20T00:11:57.245Z,19.07
2019-06-20T00:14:27.736Z,19.13
2019-06-20T00:16:59.480Z,19.18
2019-06-20T00:19:30.159Z,19.24
2019-06-20T00:22:00.569Z,19.28
2019-06-20T00:24:30.950Z,19.30
2019-06-20T00:27:07.725Z,19.33
2019-06-20T00:29:38.297Z,19.32
2019-06-20T00:32:08.780Z,19.31
2019-06-20T00:34:39.250Z,19.30
2019-06-20T00:37:09.711Z,19.28
2019-06-20T00:39:40.209Z,19.27
2019-06-20T00:42:10.785Z,19.25
2019-06-20T00:44:41.442Z,19.23
2019-06-20T00:47:12.190Z,19.24
2019-06-20T00:49:46.235Z,19.24
2019-06-20T00:52:17.027Z,19.24
2019-06-20T00:54:47.470Z,19.24
2019-06-20T00:57:17.917Z,19.28
2019-06-20T00:59:48.499Z,19.29
2019-06-20T01:02:19.004Z,19.29
2019-06-20T01:04:49.547Z,19.28
2019-06-20T01:07:20.141Z,19.27
2019-06-20T01:09:59.800Z,19.23
2019-06-20T01:12:30.405Z,19.13
2019-06-20T01:15:03.640Z,19.03
2019-06-20T01:17:36.455Z,18.94
2019-06-20T01:20:07.712Z,18.88
2019-06-20T01:22:41.377Z,18.81
2019-06-20T01:25:15.877Z,18.73
2019-06-20T01:27:48.744Z,18.69
2019-06-20T01:30:24.405Z,18.67
2019-06-20T01:32:55.317Z,18.66
2019-06-20T01:35:26.060Z,18.67
2019-06-20T01:37:56.568Z,18.68
2019-06-20T01:40:27.325Z,18.67
2019-06-20T01:42:58.940Z,18.64
2019-06-20T01:45:34.927Z,18.63
2019-06-20T01:48:05.365Z,18.63
2019-06-20T01:50:36.193Z,18.62
2019-06-20T01:53:07.335Z,18.66
2019-06-20T01:55:41.396Z,18.67
2019-06-20T01:58:12.009Z,18.66
2019-06-20T02:00:49.316Z,18.66
2019-06-20T02:03:23.523Z,18.65
2019-06-20T02:05:54.325Z,18.63
2019-06-20T02:08:25.017Z,18.60
2019-06-20T02:10:56.016Z,18.62
2019-06-20T02:13:26.414Z,18.63
2019-06-20T02:15:57.262Z,18.63
2019-06-20T02:18:28.052Z,18.61
2019-06-20T02:20:59.724Z,18.60
2019-06-20T02:23:30.514Z,18.59
2019-06-20T02:26:17.178Z,18.55
2019-06-20T02:28:46.782Z,18.51
2019-06-20T02:31:17.418Z,18.48
2019-06-20T02:33:48.218Z,18.52
2019-06-20T02:36:19.067Z,18.57
2019-06-20T02:38:51.808Z,18.59
2019-06-20T02:41:22.640Z,18.60
2019-06-20T02:44:02.528Z,18.60
2019-06-20T02:46:33.200Z,18.61
2019-06-20T02:49:03.829Z,18.63
2019-06-20T02:51:34.759Z,18.62
2019-06-20T02:54:05.757Z,18.59
2019-06-20T02:56:36.642Z,18.57
2019-06-20T02:59:07.256Z,18.56
2019-06-20T03:01:37.952Z,18.55
2019-06-20T03:04:16.558Z,18.53
2019-06-20T03:06:47.455Z,18.50
2019-06-20T03:09:18.133Z,18.46
2019-06-20T03:11:48.883Z,18.42
2019-06-20T03:14:19.463Z,18.38
2019-06-20T03:16:50.480Z,18.33
2019-06-20T03:19:21.419Z,18.22
2019-06-20T03:22:02.392Z,18.12
2019-06-20T03:24:33.328Z,18.09
2019-06-20T03:27:04.175Z,18.07
2019-06-20T03:29:37.969Z,18.07
2019-06-20T03:32:08.682Z,18.06
2019-06-20T03:34:39.814Z,18.07
2019-06-20T03:37:10.433Z,18.07
2019-06-20T03:39:41.097Z,18.08
2019-06-20T03:42:14.601Z,18.08
2019-06-20T03:44:58.410Z,18.08
2019-06-20T03:47:18.528Z,18.11
2019-06-20T03:49:49.478Z,18.13
2019-06-20T03:55:43.294Z,18.09
2019-06-20T04:01:54.968Z,18.08
2019-06-20T04:05:27.473Z,18.07
2019-06-20T04:07:58.641Z,18.09
2019-06-20T04:10:29.055Z,18.10
2019-06-20T04:12:59.503Z,18.15
2019-06-20T04:15:34.317Z,18.16
2019-06-20T04:18:04.860Z,18.17
2019-06-20T04:20:35.728Z,18.19
2019-06-20T04:23:07.326Z,18.21
2019-06-20T04:26:43.627Z,18.24
2019-06-20T04:29:14.244Z,18.23
2019-06-20T04:31:44.877Z,18.17
2019-06-20T04:34:16.671Z,18.20
2019-06-20T04:36:48.516Z,18.21
2019-06-20T04:39:19.787Z,18.25
2019-06-20T04:41:50.558Z,18.28
2019-06-20T04:44:21.384Z,18.36
2019-06-20T04:46:57.476Z,18.43
2019-06-20T04:49:30.107Z,18.50
2019-06-20T04:52:00.748Z,18.61
2019-06-20T04:54:31.458Z,18.67
2019-06-20T04:57:10.892Z,18.71
2019-06-20T04:59:43.628Z,18.72
2019-06-20T05:02:15.823Z,18.73
2019-06-20T05:04:46.202Z,18.72
2019-06-20T05:07:20.189Z,18.72
2019-06-20T05:09:50.647Z,18.74
2019-06-20T05:12:21.143Z,18.75
2019-06-20T05:15:00.172Z,18.72
2019-06-20T05:17:30.803Z,18.73
2019-06-20T05:20:01.476Z,18.76
2019-06-20T05:22:32.086Z,18.82
2019-06-20T05:25:03.661Z,18.85
2019-06-20T05:27:34.192Z,18.88
2019-06-20T05:30:05.472Z,18.88
2019-06-20T05:32:36.063Z,18.92
2019-06-20T05:35:14.495Z,18.98
2019-06-20T05:37:45.151Z,19.04
2019-06-20T05:40:16.937Z,19.05
2019-06-20T05:42:47.406Z,19.09
2019-06-20T05:45:17.962Z,19.17
2019-06-20T05:47:48.517Z,19.22
2019-06-20T05:50:19.732Z,19.26
2019-06-20T05:52:53.313Z,19.33
2019-06-20T05:55:32.919Z,19.41
2019-06-20T05:58:03.612Z,19.42
2019-06-20T06:00:34.343Z,19.37
2019-06-20T06:03:07.132Z,19.33
2019-06-20T06:05:37.285Z,19.33
2019-06-20T06:08:07.685Z,19.32
2019-06-20T06:10:38.114Z,19.28
2019-06-20T06:13:09.544Z,19.24
2019-06-20T06:15:40.070Z,19.24
2019-06-20T06:18:10.489Z,19.25
2019-06-20T06:20:44.650Z,19.40
2019-06-20T06:23:13.384Z,19.66
2019-06-20T06:25:47.065Z,19.86
2019-06-20T06:28:17.726Z,19.95
2019-06-20T06:30:48.437Z,20.04
2019-06-20T06:33:18.993Z,20.10
2019-06-20T06:35:59.504Z,20.13
2019-06-20T06:38:29.972Z,20.33
2019-06-20T06:41:00.467Z,20.32
2019-06-20T06:43:30.993Z,20.24
2019-06-20T06:46:01.449Z,20.21
2019-06-20T06:48:31.978Z,20.28
2019-06-20T06:51:02.572Z,20.44
2019-06-20T06:53:53.755Z,20.70
2019-06-20T06:56:28.688Z,20.98
2019-06-20T06:58:56.868Z,21.22
2019-06-20T07:01:34.704Z,21.30
2019-06-20T07:07:03.865Z,21.26
2019-06-20T07:09:41.306Z,21.25
2019-06-20T07:12:12.540Z,21.32
2019-06-20T07:14:47.558Z,21.32
2019-06-20T07:17:18.018Z,21.19
2019-06-20T07:19:56.600Z,20.99
2019-06-20T07:22:28.398Z,20.82
2019-06-20T07:24:59.341Z,20.65
2019-06-20T07:27:33.406Z,20.53
2019-06-20T07:30:15.509Z,20.49
2019-06-20T07:32:46.083Z,20.44
2019-06-20T07:35:33.813Z,20.38
2019-06-20T07:38:15.819Z,20.42
2019-06-20T07:40:46.405Z,20.56
2019-06-20T07:43:16.984Z,20.70
2019-06-20T07:46:01.674Z,20.90
2019-06-20T07:48:35.123Z,21.25
2019-06-20T07:51:05.572Z,21.57
2019-06-20T07:53:36.058Z,21.75
2019-06-20T07:56:09.403Z,21.94
2019-06-20T07:58:39.420Z,22.04
2019-06-20T08:01:09.839Z,22.10
2019-06-20T08:03:40.246Z,22.22
2019-06-20T08:06:28.432Z,22.16
2019-06-20T08:08:58.974Z,22.08
2019-06-20T08:11:29.615Z,22.11
2019-06-20T08:14:00.295Z,22.35
2019-06-20T08:16:30.832Z,22.80
2019-06-20T08:19:01.451Z,23.10
2019-06-20T08:21:34.780Z,23.22
2019-06-20T08:24:15.398Z,23.15
2019-06-20T08:26:45.846Z,22.97
2019-06-20T08:29:21.202Z,22.88
2019-06-20T08:31:48.635Z,22.90
2019-06-20T08:34:18.985Z,22.92
2019-06-20T08:36:49.419Z,22.92
2019-06-20T08:39:21.686Z,23.04
2019-06-20T08:41:52.140Z,23.08
2019-06-20T08:44:33.173Z,23.04
2019-06-20T08:47:03.902Z,23.08
2019-06-20T08:49:34.357Z,23.30
2019-06-20T08:52:05.616Z,23.49
2019-06-20T08:54:36.062Z,23.66
2019-06-20T08:57:07.104Z,23.91
2019-06-20T08:59:37.539Z,24.10
2019-06-20T09:02:25.605Z,24.14
2019-06-20T09:04:56.525Z,23.99
2019-06-20T09:07:27.049Z,23.84
2019-06-20T09:09:57.630Z,23.77
2019-06-20T09:12:28.292Z,23.76
2019-06-20T09:15:11.232Z,23.83
2019-06-20T09:17:53.778Z,24.04
2019-06-20T09:20:26.767Z,23.99
2019-06-20T09:22:57.293Z,23.90
2019-06-20T09:25:28.289Z,23.93
2019-06-20T09:28:00.303Z,24.17
2019-06-20T09:30:33.927Z,24.39
2019-06-20T09:33:13.022Z,24.50
2019-06-20T09:35:45.443Z,24.56
2019-06-20T09:38:15.845Z,24.78
2019-06-20T09:40:46.553Z,24.89
2019-06-20T09:43:27.272Z,24.82
2019-06-20T09:45:53.169Z,24.61
2019-06-20T09:48:24.623Z,24.43
2019-06-20T09:51:04.028Z,24.19
2019-06-20T09:53:37.447Z,23.95
2019-06-20T09:56:07.886Z,23.90
2019-06-20T09:58:38.335Z,24.08
2019-06-20T10:01:08.946Z,24.22
2019-06-20T10:03:39.362Z,24.30
2019-06-20T10:06:13.873Z,24.37
2019-06-20T10:09:01.035Z,24.39
2019-06-20T10:11:34.530Z,24.56
2019-06-20T10:14:05.185Z,24.84
2019-06-20T10:16:45.319Z,24.96
2019-06-20T10:19:07.796Z,25.15
2019-06-20T10:21:38.299Z,25.61
2019-06-20T10:24:09.044Z,26.03
2019-06-20T10:26:49.579Z,25.98
2019-06-20T10:29:20.319Z,25.72
2019-06-20T10:31:50.940Z,25.39
2019-06-20T10:34:21.367Z,25.04
2019-06-20T10:36:52.435Z,24.65
2019-06-20T10:39:24.441Z,24.43
2019-06-20T10:41:54.951Z,24.16
2019-06-20T10:44:33.320Z,23.84
2019-06-20T10:47:01.089Z,23.65
2019-06-20T10:49:31.614Z,23.57
2019-06-20T10:52:02.099Z,23.48
2019-06-20T10:54:34.743Z,23.33
2019-06-20T10:57:14.288Z,23.08
2019-06-20T10:59:44.769Z,22.82
2019-06-20T11:05:06.594Z,22.19
2019-06-20T11:07:37.292Z,21.85
2019-06-20T11:10:10.761Z,21.65
2019-06-20T11:12:47.949Z,21.63
2019-06-20T11:15:15.502Z,21.80
2019-06-20T11:17:57.063Z,22.23
2019-06-20T11:20:28.008Z,22.80
2019-06-20T11:22:58.503Z,23.32
2019-06-20T11:25:29.316Z,23.59
2019-06-20T11:28:00.017Z,23.64
2019-06-20T11:30:44.903Z,23.73
2019-06-20T11:33:04.135Z,23.79
2019-06-20T11:35:35.900Z,23.73
2019-06-20T11:38:10.139Z,23.57
2019-06-20T11:40:41.550Z,23.38
2019-06-20T11:43:13.331Z,23.37
2019-06-20T11:45:43.893Z,23.41
2019-06-20T11:48:14.367Z,23.47
2019-06-20T11:50:46.283Z,23.49
2019-06-20T11:53:17.285Z,23.40
2019-06-20T11:55:58.486Z,23.49
2019-06-20T11:58:27.051Z,23.94
2019-06-20T12:01:03.463Z,24.47
2019-06-20T12:03:33.056Z,25.14
2019-06-20T12:06:03.485Z,25.82
2019-06-20T12:08:33.902Z,26.52
2019-06-20T12:11:04.870Z,27.09
2019-06-20T12:13:35.683Z,27.77
2019-06-20T12:16:17.451Z,28.12
2019-06-20T12:18:49.503Z,27.78
2019-06-20T12:21:20.076Z,27.26
2019-06-20T12:23:50.604Z,26.91
2019-06-20T12:26:23.202Z,26.41
2019-06-20T12:28:53.787Z,25.86
2019-06-20T12:31:24.416Z,25.21
2019-06-20T12:34:04.090Z,24.45
2019-06-20T12:36:34.672Z,24.01
2019-06-20T12:39:06.811Z,23.84
2019-06-20T12:41:39.592Z,23.53
2019-06-20T12:44:09.740Z,23.44
2019-06-20T12:46:41.000Z,23.42
2019-06-20T12:49:11.514Z,23.61
2019-06-20T12:51:42.130Z,24.69
2019-06-20T12:54:19.475Z,25.87
2019-06-20T12:56:50.025Z,27.02
2019-06-20T12:59:20.634Z,27.88
2019-06-20T13:01:52.084Z,28.78
2019-06-20T13:04:22.889Z,29.24
2019-06-20T13:06:54.982Z,29.18
2019-06-20T13:09:25.711Z,28.72
2019-06-20T13:11:57.552Z,27.82
2019-06-20T13:14:30.813Z,27.01
2019-06-20T13:17:01.403Z,26.57
2019-06-20T13:19:32.237Z,26.30
2019-06-20T13:22:02.734Z,26.15
2019-06-20T13:24:33.235Z,26.23
2019-06-20T13:27:08.330Z,27.81
2019-06-20T13:29:39.146Z,29.62
2019-06-20T13:32:29.189Z,30.51
2019-06-20T13:34:59.707Z,30.54
2019-06-20T13:37:30.276Z,30.21
2019-06-20T13:40:04.220Z,30.58
2019-06-20T13:42:34.636Z,31.28
2019-06-20T13:45:18.286Z,32.09
2019-06-20T13:47:51.787Z,32.63
2019-06-20T13:50:24.567Z,32.80
2019-06-20T13:52:55.502Z,32.36
2019-06-20T13:55:26.105Z,32.23
2019-06-20T13:57:56.601Z,30.71
2019-06-20T14:00:27.385Z,28.94
2019-06-20T14:02:57.902Z,27.61
2019-06-20T14:05:39.673Z,26.69
2019-06-20T14:08:10.752Z,25.86
2019-06-20T14:10:41.355Z,25.44
2019-06-20T14:13:19.048Z,25.52
2019-06-20T14:15:46.148Z,25.85
2019-06-20T14:18:16.568Z,25.89
2019-06-20T14:20:47.032Z,25.32
2019-06-20T14:23:17.538Z,24.49
2019-06-20T14:25:56.306Z,23.92
2019-06-20T14:28:26.717Z,23.61
2019-06-20T14:30:57.920Z,23.42
2019-06-20T14:33:31.787Z,23.13
2019-06-20T14:36:00.990Z,22.77
2019-06-20T14:38:31.656Z,22.52
2019-06-20T14:41:02.178Z,22.27
2019-06-20T14:43:32.662Z,22.15
2019-06-20T14:46:21.062Z,22.41
2019-06-20T14:48:51.555Z,22.08
2019-06-20T14:51:22.027Z,22.17
2019-06-20T14:53:52.687Z,22.19
2019-06-20T14:56:23.157Z,22.57
2019-06-20T14:58:53.818Z,23.55
2019-06-20T15:01:24.327Z,24.83
2019-06-20T15:04:03.621Z,26.59
2019-06-20T15:06:34.137Z,28.34
2019-06-20T15:09:06.968Z,30.19
2019-06-20T15:11:37.545Z,31.96
2019-06-20T15:14:08.026Z,33.24
2019-06-20T15:16:38.614Z,34.04
2019-06-20T15:19:09.423Z,34.02
2019-06-20T15:21:39.827Z,33.85
2019-06-20T15:24:19.632Z,33.27
2019-06-20T15:26:51.088Z,32.45
2019-06-20T15:29:22.276Z,30.92
2019-06-20T15:31:52.798Z,29.90
2019-06-20T15:34:23.282Z,30.02
2019-06-20T15:36:55.978Z,30.75
2019-06-20T15:39:26.337Z,30.54
2019-06-20T15:42:14.608Z,30.40
2019-06-20T15:44:45.204Z,30.55
2019-06-20T15:47:15.744Z,30.05
2019-06-20T15:49:46.625Z,28.96
2019-06-20T15:52:17.240Z,28.13
2019-06-20T15:54:47.643Z,27.27
2019-06-20T15:57:18.876Z,26.53
2019-06-20T16:00:07.014Z,25.94
2019-06-20T16:02:37.530Z,25.43
2019-06-20T16:05:12.028Z,24.86
2019-06-20T16:07:45.186Z,24.43
2019-06-20T16:10:16.537Z,24.03
2019-06-20T16:12:47.121Z,23.49
2019-06-20T16:15:24.112Z,23.09
2019-06-20T16:17:54.632Z,23.53
2019-06-20T16:20:27.454Z,25.15
2019-06-20T16:22:58.103Z,27.28
2019-06-20T16:25:29.187Z,29.19
2019-06-20T16:27:59.635Z,30.55
2019-06-20T16:30:33.499Z,32.04
2019-06-20T16:33:04.430Z,32.68
2019-06-20T16:35:41.041Z,33.22
2019-06-20T16:38:11.543Z,33.59
2019-06-20T16:40:47.738Z,33.70
2019-06-20T16:43:18.555Z,33.10
2019-06-20T16:45:49.222Z,33.14
2019-06-20T16:48:19.753Z,33.84
2019-06-20T16:50:50.387Z,34.31
2019-06-20T16:53:38.316Z,34.65
2019-06-20T16:56:08.878Z,34.86
2019-06-20T16:58:39.344Z,35.33
2019-06-20T17:01:10.049Z,35.76
2019-06-20T17:03:42.071Z,36.45
2019-06-20T17:06:12.868Z,37.09
2019-06-20T17:08:44.645Z,37.23
2019-06-20T17:11:24.332Z,37.11
2019-06-20T17:13:55.020Z,37.28
2019-06-20T17:16:25.555Z,37.33
2019-06-20T17:18:55.961Z,37.29
2019-06-20T17:21:26.453Z,36.72
2019-06-20T17:23:56.937Z,36.73
2019-06-20T17:26:28.009Z,36.51
2019-06-20T17:28:58.439Z,36.24
2019-06-20T17:31:36.218Z,35.94
2019-06-20T17:34:07.162Z,36.41
2019-06-20T17:36:37.789Z,36.50
2019-06-20T17:39:09.218Z,36.49
2019-06-20T17:41:54.208Z,36.69
2019-06-20T17:44:11.726Z,36.98
2019-06-20T17:46:42.168Z,36.69
2019-06-20T17:49:14.024Z,36.79
2019-06-20T17:51:48.640Z,37.27
2019-06-20T17:54:18.986Z,36.92
2019-06-20T17:56:49.504Z,36.37
2019-06-20T17:59:22.694Z,36.58
2019-06-20T18:01:54.920Z,37.16
2019-06-20T18:04:26.843Z,37.52
2019-06-20T18:06:57.565Z,37.71
2019-06-20T18:09:45.518Z,37.76
2019-06-20T18:12:15.968Z,37.48
2019-06-20T18:14:46.499Z,37.31
2019-06-20T18:17:17.438Z,37.32
2019-06-20T18:19:48.767Z,37.07
2019-06-20T18:22:19.231Z,36.45
2019-06-20T18:24:49.718Z,35.66
2019-06-20T18:27:37.583Z,34.90
2019-06-20T18:30:09.566Z,34.55
2019-06-20T18:32:40.017Z,34.08
2019-06-20T18:35:12.322Z,33.08
2019-06-20T18:37:42.794Z,31.66
2019-06-20T18:40:13.368Z,30.53
2019-06-20T18:42:56.006Z,29.57
2019-06-20T18:45:26.438Z,29.00
2019-06-20T18:47:56.948Z,29.15
2019-06-20T18:50:27.408Z,28.83
2019-06-20T18:52:57.757Z,28.80
2019-06-20T18:55:28.455Z,28.14
2019-06-20T18:58:00.299Z,27.22
2019-06-20T19:00:35.053Z,26.43
2019-06-20T19:03:10.467Z,25.79
2019-06-20T19:05:40.928Z,25.29
2019-06-20T19:08:11.738Z,24.84
2019-06-20T19:10:42.204Z,24.50
2019-06-20T19:13:13.160Z,24.22
2019-06-20T19:15:44.468Z,24.07
2019-06-20T19:18:17.750Z,24.03
2019-06-20T19:20:55.776Z,23.98
2019-06-20T19:23:26.250Z,23.80
2019-06-20T19:25:56.774Z,23.55
2019-06-20T19:28:27.331Z,23.30
2019-06-20T19:30:57.885Z,23.04
2019-06-20T19:33:28.350Z,22.76
2019-06-20T19:35:58.935Z,22.46
2019-06-20T19:38:29.694Z,22.14
2019-06-20T19:41:10.884Z,21.78
2019-06-20T19:43:41.246Z,21.48
2019-06-20T19:46:13.243Z,21.21
2019-06-20T19:48:44.106Z,21.10
2019-06-20T19:51:14.499Z,21.02
2019-06-20T19:53:46.027Z,20.95
2019-06-20T19:56:17.275Z,20.85
2019-06-20T19:58:47.736Z,20.68
2019-06-20T20:01:21.865Z,20.53
2019-06-20T20:03:52.598Z,20.57
2019-06-20T20:06:22.992Z,20.35
2019-06-20T20:08:53.405Z,20.18
2019-06-20T20:11:23.896Z,20.06
2019-06-20T20:13:57.820Z,19.96
2019-06-20T20:16:28.384Z,19.87
2019-06-20T20:19:14.043Z,19.80
2019-06-20T20:21:35.876Z,19.74
2019-06-20T20:24:07.206Z,19.66
2019-06-20T20:26:37.688Z,19.60
2019-06-20T20:29:08.135Z,19.51
2019-06-20T20:31:38.567Z,19.45
2019-06-20T20:34:11.837Z,19.37
2019-06-20T20:36:44.780Z,19.31
2019-06-20T20:39:23.572Z,19.26
2019-06-20T20:41:54.056Z,19.20
2019-06-20T20:44:24.560Z,19.16
2019-06-20T20:46:55.093Z,19.09
2019-06-20T20:49:25.552Z,19.04
2019-06-20T20:51:56.815Z,18.99
2019-06-20T20:54:27.328Z,18.93
2019-06-20T20:56:58.008Z,18.87
2019-06-20T20:59:35.608Z,18.80
2019-06-20T21:02:06.794Z,18.72
2019-06-20T21:04:37.252Z,18.64
2019-06-20T21:07:07.933Z,18.58
2019-06-20T21:09:38.319Z,18.50
2019-06-20T21:12:08.705Z,18.44
2019-06-20T21:14:39.203Z,18.35
2019-06-20T21:17:09.820Z,18.28
2019-06-20T21:19:40.325Z,18.21
2019-06-20T21:22:14.077Z,18.26
2019-06-20T21:24:44.559Z,18.16
2019-06-20T21:27:15.020Z,18.06
2019-06-20T21:29:45.469Z,18.02
2019-06-20T21:32:15.927Z,18.02
2019-06-20T21:34:47.199Z,18.06
2019-06-20T21:37:17.666Z,18.13
2019-06-20T21:39:49.427Z,18.21
2019-06-20T21:42:28.795Z,18.29
2019-06-20T21:44:59.155Z,18.36
2019-06-20T21:47:29.577Z,18.42
2019-06-20T21:50:00.080Z,18.48
2019-06-20T21:52:30.552Z,18.52
2019-06-20T21:55:01.112Z,18.71
2019-06-20T21:57:31.510Z,18.69
2019-06-20T22:00:02.075Z,18.64
2019-06-20T22:02:33.653Z,18.59
2019-06-20T22:05:04.177Z,18.51
2019-06-20T22:07:34.538Z,18.41
2019-06-20T22:10:05.539Z,18.32
2019-06-20T22:12:36.047Z,18.24
2019-06-20T22:15:07.103Z,18.18
2019-06-20T22:17:37.452Z,18.15
2019-06-20T22:20:08.727Z,18.11
2019-06-20T22:22:49.687Z,18.11
2019-06-20T22:25:15.059Z,18.10
2019-06-20T22:27:45.494Z,18.10
2019-06-20T22:30:17.405Z,18.13
2019-06-20T22:32:47.793Z,18.14
2019-06-20T22:35:18.307Z,18.10
2019-06-20T22:37:49.244Z,18.05
2019-06-20T22:40:19.810Z,17.98
2019-06-20T22:42:54.859Z,17.91
2019-06-20T22:45:25.483Z,17.87
2019-06-20T22:47:56.182Z,17.86
2019-06-20T22:50:26.753Z,17.80
2019-06-20T22:52:57.187Z,17.73
2019-06-20T22:55:27.858Z,17.66
2019-06-20T22:57:58.348Z,17.61
2019-06-20T23:00:28.995Z,17.57
2019-06-20T23:02:59.679Z,17.49
2019-06-20T23:05:35.202Z,17.40
2019-06-20T23:08:07.183Z,17.31
2019-06-20T23:10:37.605Z,17.23
2019-06-20T23:13:08.103Z,17.18
2019-06-20T23:15:38.536Z,17.12
2019-06-20T23:18:09.081Z,17.08
2019-06-20T23:20:40.624Z,17.01
2019-06-20T23:23:11.545Z,16.94
2019-06-20T23:25:54.436Z,16.85
2019-06-20T23:28:25.088Z,16.77
2019-06-20T23:30:57.329Z,16.72
2019-06-20T23:33:30.297Z,16.71
2019-06-20T23:36:00.861Z,16.73
2019-06-20T23:38:34.315Z,16.75
2019-06-20T23:41:04.723Z,16.81
2019-06-20T23:43:36.778Z,16.86
2019-06-20T23:46:07.197Z,16.91
2019-06-20T23:48:37.543Z,16.91
2019-06-20T23:51:24.700Z,16.86
2019-06-20T23:53:43.827Z,16.83
2019-06-20T23:56:14.602Z,16.81
2019-06-20T23:58:45.362Z,16.80
